Time,TemperatureF,DewpointF,PressureIn,WindDirection,WindDirectionDegrees,WindSpeedMPH,WindSpeedGustMPH,Humidity,HourlyPrecipIn,Conditions,Clouds,dailyrainin,SoftwareType,DateUTC
2015-09-05 00:02:00,52.6,52.6,30.18,ENE,64,0.0,0.0,100,0.00,,CLR,0.00,VWS V14.01,2015-09-05 04:02:00,
2015-09-05 00:07:00,52.6,52.6,30.18,ENE,64,0.0,0.0,100,0.00,,CLR,0.00,VWS V14.01,2015-09-05 04:07:00,
2015-09-05 00:12:00,52.5,52.5,30.18,ENE,65,0.0,0.0,100,0.00,,CLR,0.00,VWS V14.01,2015-09-05 04:12:00,
2015-09-05 00:17:00,52.2,52.2,30.18,ENE,64,0.0,0.0,100,0.00,,CLR,0.00,VWS V14.01,2015-09-05 04:17:00,
2015-09-05 00:22:00,52.0,52.0,30.18,ENE,64,0.0,0.0,100,0.00,,CLR,0.00,VWS V14.01,2015-09-05 04:22:00,
2015-09-05 00:27:00,51.9,51.9,30.18,ENE,64,0.0,0.0,100,0.00,,CLR,0.00,VWS V14.01,2015-09-05 04:27:00,
2015-09-05 00:32:00,51.9,51.9,30.18,ENE,64,0.0,0.0,100,0.00,,CLR,0.00,VWS V14.01,2015-09-05 04:32:00,
2015-09-05 00:37:00,51.7,51.7,30.18,ENE,64,0.0,0.0,100,0.00,,CLR,0.00,VWS V14.01,2015-09-05 04:37:00,
2015-09-05 00:42:00,51.6,51.6,30.18,ENE,64,0.0,0.0,100,0.00,,CLR,0.00,VWS V14.01,2015-09-05 04:42:00,
2015-09-05 00:52:00,51.3,51.3,30.18,ENE,64,0.0,0.0,100,0.00,,CLR,0.00,VWS V14.01,2015-09-05 04:52:00,
2015-09-05 00:57:00,51.3,51.3,30.18,ENE,64,0.0,0.0,100,0.00,,CLR,0.00,VWS V14.01,2015-09-05 04:57:00,
2015-09-05 01:06:00,51.1,51.1,30.18,ENE,64,0.0,0.0,100,0.00,,CLR,0.00,VWS V14.01,2015-09-05 05:06:00,
2015-09-05 01:11:00,51.0,51.0,30.18,ENE,64,0.0,0.0,100,0.00,,CLR,0.00,VWS V14.01,2015-09-05 05:11:00,
2015-09-05 01:16:00,50.8,50.8,30.18,ENE,64,0.0,0.0,100,0.00,,CLR,0.00,VWS V14.01,2015-09-05 05:16:00,
2015-09-05 01:21:00,50.7,50.7,30.18,ENE,64,0.0,0.0,100,0.00,,CLR,0.00,VWS V14.01,2015-09-05 05:21:00,
2015-09-05 01:26:00,50.8,50.8,30.18,ENE,64,0.0,0.0,100,0.00,,CLR,0.00,VWS V14.01,2015-09-05 05:26:00,
2015-09-05 01:31:00,50.8,50.8,30.18,ENE,64,0.0,0.0,100,0.00,,CLR,0.00,VWS V14.01,2015-09-05 05:31:00,
2015-09-05 01:37:00,50.5,50.5,30.18,ENE,64,0.0,0.0,100,0.00,,CLR,0.00,VWS V14.01,2015-09-05 05:37:00,
2015-09-05 01:42:00,50.4,50.4,30.18,ENE,65,0.0,0.0,100,0.00,,CLR,0.00,VWS V14.01,2015-09-05 05:42:00,
2015-09-05 01:47:00,50.1,50.1,30.17,ENE,64,0.0,0.0,100,0.00,,CLR,0.00,VWS V14.01,2015-09-05 05:47:00,
2015-09-05 01:52:00,50.2,50.2,30.17,ENE,64,0.0,0.0,100,0.00,,CLR,0.00,VWS V14.01,2015-09-05 05:52:00,
2015-09-05 01:57:00,50.1,50.1,30.17,ENE,65,0.0,0.0,100,0.00,,CLR,0.00,VWS V14.01,2015-09-05 05:57:00,
2015-09-05 02:02:00,49.9,49.9,30.17,ENE,64,0.0,0.0,100,0.00,,CLR,0.00,VWS V14.01,2015-09-05 06:02:00,
2015-09-05 02:07:00,49.8,49.8,30.17,ENE,65,0.0,0.0,100,0.00,,CLR,0.00,VWS V14.01,2015-09-05 06:07:00,
2015-09-05 02:12:00,49.6,49.6,30.17,ENE,64,0.0,0.0,100,0.00,,CLR,0.00,VWS V14.01,2015-09-05 06:12:00,
2015-09-05 02:17:00,49.5,49.5,30.17,ENE,64,0.0,0.0,100,0.00,,CLR,0.00,VWS V14.01,2015-09-05 06:17:00,
2015-09-05 02:22:00,49.4,49.4,30.17,ENE,64,0.0,0.0,100,0.00,,CLR,0.00,VWS V14.01,2015-09-05 06:22:00,
2015-09-05 02:27:00,49.2,49.2,30.17,ENE,64,0.0,0.0,100,0.00,,CLR,0.00,VWS V14.01,2015-09-05 06:27:00,
2015-09-05 02:32:00,49.2,49.2,30.17,ENE,64,0.0,0.0,100,0.00,,CLR,0.00,VWS V14.01,2015-09-05 06:32:00,
2015-09-05 02:37:00,49.1,49.1,30.17,ENE,65,0.0,0.0,100,0.00,,CLR,0.00,VWS V14.01,2015-09-05 06:37:00,
2015-09-05 02:42:00,48.9,48.9,30.17,ENE,64,0.0,0.0,100,0.00,,SCT004,0.00,VWS V14.01,2015-09-05 06:42:00,
2015-09-05 02:47:00,48.6,48.6,30.17,ENE,64,0.0,0.0,100,0.00,,SCT004,0.00,VWS V14.01,2015-09-05 06:47:00,
2015-09-05 02:52:00,48.5,48.5,30.17,ENE,64,0.0,0.0,100,0.00,,SCT004,0.00,VWS V14.01,2015-09-05 06:52:00,
2015-09-05 02:57:00,48.5,48.5,30.17,ENE,64,0.0,0.0,100,0.00,,SCT004,0.00,VWS V14.01,2015-09-05 06:57:00,
2015-09-05 03:02:00,48.6,48.6,30.17,ENE,64,0.0,0.0,100,0.00,,SCT004,0.00,VWS V14.01,2015-09-05 07:02:00,
2015-09-05 03:07:00,48.5,48.5,30.17,ENE,64,0.0,0.0,100,0.00,,SCT004,0.00,VWS V14.01,2015-09-05 07:07:00,
2015-09-05 03:12:00,48.5,48.5,30.17,ENE,64,0.0,0.0,100,0.00,,SCT004,0.00,VWS V14.01,2015-09-05 07:12:00,
2015-09-05 03:17:00,48.3,48.3,30.17,ENE,64,0.0,0.0,100,0.00,,SCT004,0.00,VWS V14.01,2015-09-05 07:17:00,
2015-09-05 03:22:00,48.5,48.5,30.17,ENE,64,0.0,0.0,100,0.00,,SCT004,0.00,VWS V14.01,2015-09-05 07:22:00,
2015-09-05 03:27:00,48.5,48.5,30.17,ENE,64,0.0,0.0,100,0.00,,SCT004,0.00,VWS V14.01,2015-09-05 07:27:00,
2015-09-05 03:32:00,48.3,48.3,30.17,ENE,64,0.0,0.0,100,0.00,,SCT004,0.00,VWS V14.01,2015-09-05 07:32:00,
2015-09-05 03:37:00,48.0,48.0,30.17,ENE,64,0.0,0.0,100,0.00,,SCT004,0.00,VWS V14.01,2015-09-05 07:37:00,
2015-09-05 03:42:00,47.9,47.9,30.17,ENE,64,0.0,0.0,100,0.00,,SCT004,0.00,VWS V14.01,2015-09-05 07:42:00,
2015-09-05 03:47:00,47.7,47.7,30.17,ENE,64,0.0,0.0,100,0.00,,SCT004,0.00,VWS V14.01,2015-09-05 07:47:00,
2015-09-05 03:53:00,47.7,47.7,30.17,ENE,64,0.0,0.0,100,0.00,,CLR,0.00,VWS V14.01,2015-09-05 07:53:00,
2015-09-05 04:03:00,47.7,47.7,30.17,ENE,64,0.0,0.0,100,0.00,,CLR,0.00,VWS V14.01,2015-09-05 08:03:00,
2015-09-05 04:08:00,47.6,47.6,30.17,ENE,64,0.0,0.0,100,0.00,,CLR,0.00,VWS V14.01,2015-09-05 08:08:00,
2015-09-05 04:13:00,47.3,47.3,30.17,ENE,64,0.0,0.0,100,0.00,,CLR,0.00,VWS V14.01,2015-09-05 08:13:00,
2015-09-05 04:18:00,47.1,47.1,30.17,ENE,64,0.0,0.0,100,0.00,,CLR,0.00,VWS V14.01,2015-09-05 08:18:00,
2015-09-05 04:23:00,47.3,47.3,30.17,ENE,64,0.0,0.0,100,0.00,,CLR,0.00,VWS V14.01,2015-09-05 08:23:00,
2015-09-05 04:28:00,47.3,47.3,30.17,ENE,64,0.0,0.0,100,0.00,,CLR,0.00,VWS V14.01,2015-09-05 08:28:00,
2015-09-05 04:33:00,47.1,47.1,30.18,ENE,64,0.0,0.0,100,0.00,,CLR,0.00,VWS V14.01,2015-09-05 08:33:00,
2015-09-05 04:38:00,47.0,47.0,30.18,ENE,64,0.0,0.0,100,0.00,,CLR,0.00,VWS V14.01,2015-09-05 08:38:00,
2015-09-05 04:43:00,46.8,46.8,30.18,ENE,64,0.0,0.0,100,0.00,,CLR,0.00,VWS V14.01,2015-09-05 08:43:00,
2015-09-05 04:48:00,46.7,46.7,30.18,ENE,64,0.0,0.0,100,0.00,,CLR,0.00,VWS V14.01,2015-09-05 08:48:00,
2015-09-05 04:53:00,46.7,46.7,30.18,ENE,64,0.0,0.0,100,0.00,,CLR,0.00,VWS V14.01,2015-09-05 08:53:00,
2015-09-05 04:58:00,46.5,46.5,30.18,ENE,64,0.0,0.0,100,0.00,,CLR,0.00,VWS V14.01,2015-09-05 08:58:00,
2015-09-05 05:03:00,46.7,46.7,30.18,ENE,64,0.0,0.0,100,0.00,,CLR,0.00,VWS V14.01,2015-09-05 09:03:00,
2015-09-05 05:08:00,46.7,46.7,30.18,ENE,64,0.0,0.0,100,0.00,,CLR,0.00,VWS V14.01,2015-09-05 09:08:00,
2015-09-05 05:13:00,46.5,46.5,30.18,ENE,64,0.0,0.0,100,0.00,,CLR,0.00,VWS V14.01,2015-09-05 09:13:00,
2015-09-05 05:18:00,46.4,46.4,30.19,ENE,64,0.0,0.0,100,0.00,,CLR,0.00,VWS V14.01,2015-09-05 09:18:00,
2015-09-05 05:23:00,46.2,46.2,30.19,ENE,64,0.0,0.0,100,0.00,,CLR,0.00,VWS V14.01,2015-09-05 09:23:00,
2015-09-05 05:28:00,46.2,46.2,30.19,ENE,64,0.0,0.0,100,0.00,,CLR,0.00,VWS V14.01,2015-09-05 09:28:00,
2015-09-05 05:33:00,46.2,46.2,30.20,ENE,64,0.0,0.0,100,0.00,,CLR,0.00,VWS V14.01,2015-09-05 09:33:00,